Amboy, Iowa
Current Conditions -  °F | °C
As of 1:35 PM on Thursday 18 Dec 2014 (Local Time) from KTNU Reporting Station
Overcast Overcast  
Wind Chill: -3°   Ceiling: 1100
Heat Index: -3°   Visibility: 9mi
Dew Point: -5°   Wind: 0mph
Humidity: 86%   Direction: NA
Pressure: 30.24"   Gusts: NA
Location:  41.7317°N, 93.0122°W
Report Text: KTNU 181935Z AUTO 00000KT 9SM BKN011 BKN040 OVC047 M03/M05 A3024 RMK AO2
Loading
Personal Weather Stations






























Interactive Weather Map New forecast layout! Learn more

10-Day Weather Forecast

Advertisements
Track Severe Weather on mobile